Time;durP1;ratioP1;P1;durP2;ratioP2;P2;SDS_P1;SDS_P2;PMS_P1;PMS_P2;Temp;Humidity;BMP_temperature;BMP_pressure;BME280_temperature;BME280_humidity;BME280_pressure;Samples;Min_cycle;Max_cycle;Signal;HPM_P1;HPM_P2
2021/04/20 00:00:53;;;;;;;11.03;5.07;;;6.40;99.90;;;;;;5018317;28;20988;-51
2021/04/20 00:03:20;;;;;;;10.80;5.17;;;6.30;99.90;;;;;;5024539;28;20200;-49
2021/04/20 00:05:46;;;;;;;7.93;4.80;;;6.30;99.90;;;;;;5014024;28;20218;-55
2021/04/20 00:08:12;;;;;;;8.47;5.00;;;6.30;99.90;;;;;;5016595;28;20213;-51
2021/04/20 00:10:38;;;;;;;11.83;5.57;;;6.30;99.90;;;;;;5020579;28;20717;-50
2021/04/20 00:13:05;;;;;;;11.30;5.00;;;6.30;99.90;;;;;;5024735;28;20211;-51
2021/04/20 00:15:33;;;;;;;8.03;4.70;;;;;;;;;;5018054;28;20581;-49
2021/04/20 00:18:05;;;;;;;6.23;5.00;;;6.20;99.90;;;;;;5022153;28;20320;-52
2021/04/20 00:20:31;;;;;;;9.30;5.13;;;6.20;99.90;;;;;;5015808;28;20269;-52
2021/04/20 00:22:57;;;;;;;10.03;4.83;;;6.20;99.90;;;;;;5021855;28;20198;-53
2021/04/20 00:25:24;;;;;;;12.17;5.00;;;6.20;99.90;;;;;;5011473;28;20212;-52
2021/04/20 00:27:50;;;;;;;9.33;5.27;;;6.10;99.90;;;;;;5021036;28;20206;-52
2021/04/20 00:30:18;;;;;;;7.60;4.73;;;6.10;99.90;;;;;;5019713;28;20228;-51
2021/04/20 00:32:45;;;;;;;8.90;5.10;;;6.10;99.90;;;;;;5019069;28;20199;-54
2021/04/20 00:35:12;;;;;;;7.27;5.17;;;6.10;99.90;;;;;;5024330;28;20712;-50
2021/04/20 00:37:38;;;;;;;14.70;5.03;;;6.00;99.90;;;;;;5021208;28;20206;-52
2021/04/20 00:40:07;;;;;;;8.03;4.50;;;6.00;99.90;;;;;;5014336;28;20273;-53
2021/04/20 00:42:45;;;;;;;7.87;4.33;;;6.00;99.90;;;;;;5023671;28;20637;-51
2021/04/20 00:45:13;;;;;;;10.10;5.20;;;6.00;99.90;;;;;;5014255;28;20196;-52
2021/04/20 00:47:39;;;;;;;10.97;5.17;;;5.90;99.90;;;;;;5015106;28;20193;-53
2021/04/20 00:50:08;;;;;;;9.10;4.53;;;5.90;99.90;;;;;;5021759;28;20311;-52
2021/04/20 00:52:34;;;;;;;6.47;4.63;;;5.80;99.90;;;;;;5021261;28;20200;-53
2021/04/20 00:55:00;;;;;;;7.03;4.83;;;5.80;99.90;;;;;;5011943;28;20361;-53
2021/04/20 00:57:27;;;;;;;12.97;5.70;;;5.70;99.90;;;;;;5022712;28;20564;-52
2021/04/20 00:59:53;;;;;;;9.40;4.97;;;5.70;99.90;;;;;;5015319;28;20266;-52
2021/04/20 01:02:19;;;;;;;9.93;5.03;;;5.70;99.90;;;;;;5019549;28;20557;-54
2021/04/20 01:04:45;;;;;;;9.47;6.27;;;5.60;99.90;;;;;;5019008;28;20188;-52
2021/04/20 01:07:13;;;;;;;6.80;4.80;;;5.60;99.90;;;;;;5018017;28;20204;-53
2021/04/20 01:09:40;;;;;;;8.03;5.23;;;5.60;99.90;;;;;;5017884;28;20214;-52
2021/04/20 01:12:07;;;;;;;7.83;5.00;;;5.50;99.90;;;;;;5010606;28;20204;-52
2021/04/20 01:14:34;;;;;;;11.17;5.30;;;5.50;99.90;;;;;;5022030;28;20208;-52
2021/04/20 01:17:00;;;;;;;7.13;4.80;;;5.50;99.90;;;;;;5018604;28;20221;-50
2021/04/20 01:19:29;;;;;;;11.83;5.53;;;5.50;99.90;;;;;;5022657;28;20220;-53
2021/04/20 01:21:57;;;;;;;10.80;5.30;;;5.50;99.90;;;;;;5016047;28;20414;-52
2021/04/20 01:24:27;;;;;;;12.37;5.57;;;5.50;99.90;;;;;;5016765;28;20196;-52
2021/04/20 01:26:54;;;;;;;16.53;4.97;;;5.40;99.90;;;;;;5008382;28;20203;-50
2021/04/20 01:29:21;;;;;;;8.00;5.83;;;5.40;99.90;;;;;;5022528;28;20661;-50
2021/04/20 01:31:48;;;;;;;9.30;5.57;;;5.30;99.90;;;;;;5015369;28;20233;-52
2021/04/20 01:34:16;;;;;;;9.70;5.83;;;5.30;99.90;;;;;;5023816;28;20245;-49
2021/04/20 01:36:42;;;;;;;8.33;5.27;;;5.30;99.90;;;;;;5012659;28;20206;-52
2021/04/20 01:39:10;;;;;;;8.63;5.07;;;5.30;99.90;;;;;;5017168;28;20210;-51
2021/04/20 01:41:39;;;;;;;10.17;5.43;;;5.30;99.90;;;;;;5003470;28;20627;-48
2021/04/20 01:44:06;;;;;;;12.83;5.60;;;5.30;99.90;;;;;;5032496;28;20219;-52
2021/04/20 01:46:33;;;;;;;10.03;5.83;;;5.20;99.90;;;;;;5021674;28;20528;-53
2021/04/20 01:48:59;;;;;;;10.20;5.33;;;5.10;99.90;;;;;;5017174;28;20563;-52
2021/04/20 01:51:26;;;;;;;7.87;5.30;;;5.10;99.90;;;;;;5016300;28;20961;-50
2021/04/20 01:53:54;;;;;;;10.10;5.53;;;5.10;99.90;;;;;;5016879;28;20200;-51
2021/04/20 01:56:21;;;;;;;5.37;4.50;;;4.90;99.90;;;;;;5013400;28;20448;-55
2021/04/20 01:58:48;;;;;;;8.50;5.17;;;4.90;99.90;;;;;;5011549;28;20210;-50
2021/04/20 02:01:16;;;;;;;8.97;6.00;;;4.80;99.90;;;;;;5013751;28;21017;-52
2021/04/20 02:03:44;;;;;;;12.07;5.50;;;4.80;99.90;;;;;;5016949;28;20681;-54
2021/04/20 02:06:11;;;;;;;10.63;5.33;;;4.80;99.90;;;;;;5024444;28;20211;-53
2021/04/20 02:08:38;;;;;;;7.27;5.40;;;4.80;99.90;;;;;;5029370;28;20204;-51
2021/04/20 02:11:06;;;;;;;6.07;4.67;;;4.70;99.90;;;;;;5018084;28;20583;-52
2021/04/20 02:13:33;;;;;;;7.70;5.13;;;4.70;99.90;;;;;;5009012;28;20348;-54
2021/04/20 02:16:01;;;;;;;9.07;5.07;;;4.70;99.90;;;;;;5019764;28;20250;-52
2021/04/20 02:18:30;;;;;;;7.83;5.20;;;4.70;99.90;;;;;;5019069;28;20285;-53
2021/04/20 02:20:57;;;;;;;9.87;5.67;;;4.70;99.90;;;;;;5026204;28;20215;-52
2021/04/20 02:23:23;;;;;;;7.17;5.87;;;4.70;99.90;;;;;;5023890;28;20818;-51
2021/04/20 02:25:51;;;;;;;10.07;5.63;;;4.60;99.90;;;;;;5024975;28;20283;-51
2021/04/20 02:28:18;;;;;;;7.00;5.77;;;4.60;99.90;;;;;;5009262;28;20215;-55
2021/04/20 02:30:45;;;;;;;8.43;5.53;;;4.60;99.90;;;;;;5022788;28;20219;-53
2021/04/20 02:33:13;;;;;;;12.33;5.90;;;4.60;99.90;;;;;;5015937;28;20215;-53
2021/04/20 02:35:39;;;;;;;8.90;5.93;;;4.60;99.90;;;;;;5018774;28;20210;-53
2021/04/20 02:38:06;;;;;;;12.40;5.47;;;4.50;99.90;;;;;;5016612;28;20243;-54
2021/04/20 02:40:35;;;;;;;6.70;5.30;;;4.50;99.90;;;;;;5023507;28;20234;-55
2021/04/20 02:43:01;;;;;;;8.20;5.47;;;4.50;99.90;;;;;;5013436;28;20200;-50
2021/04/20 02:45:28;;;;;;;6.53;4.50;;;4.50;99.90;;;;;;5017553;28;20200;-53
2021/04/20 02:47:55;;;;;;;8.20;5.17;;;4.50;99.90;;;;;;5025086;28;20634;-52
2021/04/20 02:50:24;;;;;;;9.23;5.13;;;4.50;99.90;;;;;;5015695;28;20227;-53
2021/04/20 02:52:53;;;;;;;9.33;5.83;;;4.50;99.90;;;;;;5019472;28;20210;-54
2021/04/20 02:55:20;;;;;;;9.27;5.20;;;4.50;99.90;;;;;;5014814;28;20874;-55
2021/04/20 02:57:50;;;;;;;9.57;5.37;;;4.50;99.90;;;;;;5025093;28;20531;-56
2021/04/20 03:00:18;;;;;;;9.37;5.83;;;4.50;99.90;;;;;;5003478;28;20219;-52
2021/04/20 03:02:47;;;;;;;7.73;5.57;;;4.50;99.90;;;;;;5026733;28;20196;-50
2021/04/20 03:05:15;;;;;;;9.13;5.47;;;4.40;99.90;;;;;;5020775;28;20573;-49
2021/04/20 03:07:43;;;;;;;11.17;5.70;;;4.40;99.90;;;;;;5020176;28;20207;-51
2021/04/20 03:10:12;;;;;;;7.83;5.47;;;4.50;99.90;;;;;;5021898;28;20214;-50
2021/04/20 03:12:40;;;;;;;10.67;6.10;;;4.40;99.90;;;;;;5023774;28;20208;-50
2021/04/20 03:15:08;;;;;;;9.43;6.00;;;4.30;99.90;;;;;;5015528;28;20272;-51
2021/04/20 03:17:34;;;;;;;12.20;5.93;;;4.30;99.90;;;;;;5023224;28;20786;-51
2021/04/20 03:20:00;;;;;;;11.40;5.53;;;4.20;99.90;;;;;;5023004;28;20228;-54
2021/04/20 03:22:28;;;;;;;7.93;5.60;;;4.10;99.90;;;;;;5016926;28;20200;-53
2021/04/20 03:25:13;;;;;;;13.17;6.30;;;4.10;99.90;;;;;;5024586;28;20207;-52
2021/04/20 03:27:45;;;;;;;10.97;5.80;;;4.10;99.90;;;;;;5006488;28;506307;-53
2021/04/20 03:30:13;;;;;;;9.37;5.87;;;4.00;99.90;;;;;;5010618;28;20299;-51
2021/04/20 03:32:45;;;;;;;8.37;5.77;;;3.90;99.90;;;;;;5027693;28;20670;-52
2021/04/20 03:35:15;;;;;;;9.30;5.77;;;3.90;99.90;;;;;;5021161;28;20211;-50
2021/04/20 03:37:49;;;;;;;5.73;5.17;;;3.90;99.90;;;;;;5020700;28;20203;-50
2021/04/20 03:40:18;;;;;;;9.17;5.97;;;3.90;99.90;;;;;;5020694;28;20299;-52
2021/04/20 03:42:48;;;;;;;10.60;5.93;;;3.90;99.90;;;;;;5025560;28;20208;-51
2021/04/20 03:45:19;;;;;;;12.40;6.03;;;3.90;99.90;;;;;;5017853;28;20198;-50
2021/04/20 03:47:51;;;;;;;12.37;6.50;;;3.90;99.90;;;;;;5022122;28;20210;-50
2021/04/20 03:50:23;;;;;;;9.13;5.90;;;3.90;99.90;;;;;;5020167;28;20214;-54
2021/04/20 03:52:54;;;;;;;12.30;6.20;;;3.80;99.90;;;;;;5023691;28;20240;-53
2021/04/20 03:55:23;;;;;;;11.43;6.03;;;3.80;99.90;;;;;;5016808;28;20963;-53
2021/04/20 03:57:50;;;;;;;10.77;6.80;;;3.70;99.90;;;;;;5024561;28;20204;-52
2021/04/20 04:00:18;;;;;;;11.93;6.07;;;3.70;99.90;;;;;;5020516;28;20274;-53
2021/04/20 04:02:47;;;;;;;9.60;6.10;;;3.70;99.90;;;;;;5008337;28;20216;-51
2021/04/20 04:05:17;;;;;;;12.30;6.37;;;3.70;99.90;;;;;;5020021;28;20206;-49
2021/04/20 04:07:44;;;;;;;8.10;6.27;;;3.70;99.90;;;;;;5024966;28;20618;-52
2021/04/20 04:10:12;;;;;;;6.60;5.37;;;3.60;99.90;;;;;;5016685;28;20330;-49
2021/04/20 04:12:40;;;;;;;11.63;6.40;;;3.70;99.90;;;;;;5025017;28;20271;-51
2021/04/20 04:15:10;;;;;;;10.17;5.77;;;3.70;99.90;;;;;;5022041;28;20200;-50
2021/04/20 04:17:39;;;;;;;7.97;6.20;;;3.70;99.90;;;;;;5011346;28;20560;-49
2021/04/20 04:20:06;;;;;;;8.70;6.03;;;3.70;99.90;;;;;;5025037;28;20251;-53
2021/04/20 04:22:36;;;;;;;13.03;6.83;;;3.70;99.90;;;;;;5022681;28;20201;-53
2021/04/20 04:25:06;;;;;;;15.97;6.73;;;3.80;99.90;;;;;;5017560;28;20218;-51
2021/04/20 04:27:35;;;;;;;11.80;6.97;;;3.70;99.90;;;;;;5022784;28;20210;-53
2021/04/20 04:30:08;;;;;;;12.73;7.03;;;3.70;99.90;;;;;;5022596;28;20227;-53
2021/04/20 04:32:36;;;;;;;10.10;6.23;;;3.70;99.90;;;;;;5011125;28;20220;-52
2021/04/20 04:35:05;;;;;;;10.33;5.53;;;3.70;99.90;;;;;;5022163;28;20203;-51
2021/04/20 04:37:32;;;;;;;11.17;6.23;;;3.70;99.90;;;;;;5021893;28;20199;-52
2021/04/20 04:39:58;;;;;;;10.70;6.00;;;3.70;99.90;;;;;;5018639;28;20762;-52
2021/04/20 04:42:25;;;;;;;9.27;6.23;;;3.60;99.90;;;;;;5021285;28;20827;-50
2021/04/20 04:44:51;;;;;;;12.43;7.07;;;3.60;99.90;;;;;;5024153;28;20258;-54
2021/04/20 04:47:19;;;;;;;14.43;6.97;;;3.60;99.90;;;;;;5008812;28;20427;-54
2021/04/20 04:49:46;;;;;;;12.60;6.40;;;3.70;99.90;;;;;;5020899;28;20275;-55
2021/04/20 04:52:13;;;;;;;12.53;6.53;;;3.80;99.90;;;;;;5023813;28;20214;-50
2021/04/20 04:54:42;;;;;;;13.47;6.63;;;3.80;99.90;;;;;;5015925;28;20192;-56
2021/04/20 04:57:11;;;;;;;11.10;7.13;;;3.80;99.90;;;;;;5024217;28;20228;-52
2021/04/20 04:59:38;;;;;;;14.43;7.03;;;3.90;99.90;;;;;;5020434;28;20226;-52
2021/04/20 05:02:06;;;;;;;15.47;7.27;;;3.90;99.90;;;;;;5023972;28;20231;-54
2021/04/20 05:04:34;;;;;;;12.57;6.27;;;4.00;99.90;;;;;;5012273;28;20268;-53
2021/04/20 05:07:00;;;;;;;13.60;7.03;;;4.10;99.90;;;;;;5022685;28;20245;-55
2021/04/20 05:09:26;;;;;;;16.23;7.00;;;4.10;99.90;;;;;;5015556;28;20306;-51
2021/04/20 05:11:53;;;;;;;10.67;6.27;;;4.20;99.90;;;;;;5021871;28;20215;-53
2021/04/20 05:14:20;;;;;;;9.47;7.00;;;4.30;99.90;;;;;;5023046;28;20211;-53
2021/04/20 05:16:49;;;;;;;10.33;6.37;;;4.30;99.90;;;;;;5020848;28;20953;-51
2021/04/20 05:19:20;;;;;;;15.47;7.20;;;4.40;99.90;;;;;;5011826;28;20674;-51
2021/04/20 05:21:48;;;;;;;11.17;6.90;;;4.50;99.90;;;;;;5019049;28;20233;-55
2021/04/20 05:24:15;;;;;;;14.10;6.70;;;4.60;99.90;;;;;;5023210;28;20210;-52
2021/04/20 05:26:41;;;;;;;9.63;6.50;;;4.70;99.90;;;;;;5014604;28;20856;-50
2021/04/20 05:29:07;;;;;;;12.53;6.37;;;4.80;99.90;;;;;;5022950;28;20207;-51
2021/04/20 05:31:35;;;;;;;14.80;6.37;;;4.80;99.90;;;;;;5019927;28;20224;-51
2021/04/20 05:34:04;;;;;;;7.47;5.27;;;4.90;99.90;;;;;;5013802;28;20204;-53
2021/04/20 05:36:31;;;;;;;8.67;6.17;;;4.90;99.90;;;;;;5023459;28;20208;-54
2021/04/20 05:38:59;;;;;;;8.33;5.87;;;5.00;99.90;;;;;;5022185;28;20681;-52
2021/04/20 05:41:27;;;;;;;10.60;5.87;;;5.10;99.90;;;;;;5016316;28;20250;-53
2021/04/20 05:43:55;;;;;;;7.63;4.73;;;5.30;99.90;;;;;;5010268;28;20211;-52
2021/04/20 05:46:22;;;;;;;9.23;5.03;;;5.40;99.90;;;;;;5018561;28;20647;-52
2021/04/20 05:48:49;;;;;;;7.93;5.53;;;5.50;99.90;;;;;;5008970;28;20203;-52
2021/04/20 05:51:16;;;;;;;9.90;5.13;;;5.60;99.90;;;;;;5020667;28;21037;-55
2021/04/20 05:53:44;;;;;;;8.10;5.53;;;5.70;99.90;;;;;;5015625;28;20199;-51
2021/04/20 05:56:11;;;;;;;11.37;4.80;;;5.80;99.90;;;;;;5019491;28;20216;-52
2021/04/20 05:58:38;;;;;;;7.83;4.77;;;5.90;99.90;;;;;;5020973;28;20193;-49
2021/04/20 06:01:05;;;;;;;8.20;4.73;;;6.00;99.90;;;;;;5018554;28;20223;-53
2021/04/20 06:03:33;;;;;;;6.70;4.90;;;6.10;99.90;;;;;;5022920;28;20234;-54
2021/04/20 06:06:00;;;;;;;7.57;4.73;;;6.20;99.90;;;;;;5008966;28;20226;-50
2021/04/20 06:08:28;;;;;;;7.90;4.77;;;6.20;99.90;;;;;;5025523;28;20568;-55
2021/04/20 06:10:55;;;;;;;12.00;4.87;;;6.30;99.90;;;;;;5015034;28;20220;-51
2021/04/20 06:13:25;;;;;;;7.53;4.43;;;6.40;99.90;;;;;;5019282;28;20214;-54
2021/04/20 06:15:52;;;;;;;12.57;5.07;;;6.50;99.90;;;;;;5018061;28;20243;-53
2021/04/20 06:18:18;;;;;;;8.90;4.60;;;6.70;99.90;;;;;;5021278;28;20211;-54
2021/04/20 06:20:44;;;;;;;16.07;4.67;;;6.80;99.90;;;;;;5015962;28;20234;-51
2021/04/20 06:23:11;;;;;;;12.57;4.60;;;6.90;99.90;;;;;;5012466;28;20354;-52
2021/04/20 06:25:37;;;;;;;9.17;4.63;;;7.00;99.90;;;;;;5019405;28;20208;-54
2021/04/20 06:28:04;;;;;;;8.07;4.23;;;7.10;99.90;;;;;;5014963;28;20214;-55
2021/04/20 06:30:31;;;;;;;10.30;4.83;;;7.20;99.90;;;;;;5022971;28;20635;-56
2021/04/20 06:32:57;;;;;;;10.27;4.53;;;7.30;99.90;;;;;;5018734;28;20210;-52
2021/04/20 06:35:23;;;;;;;5.37;4.03;;;7.40;99.90;;;;;;5022984;28;20211;-54
2021/04/20 06:37:52;;;;;;;8.93;4.30;;;7.50;99.90;;;;;;5010926;28;20216;-54
2021/04/20 06:40:23;;;;;;;6.50;4.10;;;7.60;99.90;;;;;;5018049;28;20273;-51
2021/04/20 06:42:53;;;;;;;5.47;3.57;;;7.70;99.90;;;;;;5012276;28;20205;-51
2021/04/20 06:45:24;;;;;;;7.70;4.20;;;7.70;99.90;;;;;;5022377;28;20208;-51
2021/04/20 06:47:57;;;;;;;9.07;4.30;;;7.80;99.90;;;;;;5019303;28;20243;-50
2021/04/20 06:50:24;;;;;;;6.10;4.47;;;7.90;99.90;;;;;;5019207;28;20219;-53
2021/04/20 06:52:58;;;;;;;6.93;4.70;;;8.00;99.90;;;;;;5010721;28;20203;-52
2021/04/20 06:55:28;;;;;;;9.30;4.17;;;8.10;99.90;;;;;;5025274;28;20745;-51
2021/04/20 06:58:06;;;;;;;6.83;3.60;;;8.20;99.90;;;;;;5019981;28;20286;-52
2021/04/20 07:00:40;;;;;;;4.33;3.53;;;8.30;99.90;;;;;;5019070;28;20234;-53
2021/04/20 07:03:14;;;;;;;5.90;3.70;;;8.40;99.90;;;;;;5025357;28;20192;-50
2021/04/20 07:05:47;;;;;;;8.07;4.07;;;8.50;99.90;;;;;;5021801;28;20203;-52
2021/04/20 07:08:20;;;;;;;6.60;4.10;;;8.60;99.90;;;;;;5026307;28;20196;-50
2021/04/20 07:10:48;;;;;;;4.37;3.30;;;8.70;99.90;;;;;;5008291;28;20232;-52
2021/04/20 07:13:19;;;;;;;6.80;3.83;;;8.70;99.90;;;;;;5025105;28;20208;-50
2021/04/20 07:15:49;;;;;;;4.13;3.17;;;8.80;99.90;;;;;;5011027;28;20206;-53
2021/04/20 07:18:51;;;;;;;5.50;3.43;;;9.00;99.90;;;;;;5025690;28;20234;-50
2021/04/20 07:21:39;;;;;;;5.57;3.40;;;9.10;99.90;;;;;;5024634;28;20240;-50
2021/04/20 07:24:15;;;;;;;10.97;3.63;;;9.20;99.90;;;;;;5014818;28;20207;-49
2021/04/20 07:26:53;;;;;;;6.23;3.60;;;9.30;99.90;;;;;;5016625;28;20210;-49
2021/04/20 07:29:33;;;;;;;8.67;3.20;;;9.50;99.90;;;;;;5024928;28;20583;-49
2021/04/20 07:32:12;;;;;;;9.27;3.73;;;9.50;99.90;;;;;;5021814;28;20208;-49
2021/04/20 07:34:42;;;;;;;8.17;3.30;;;9.60;99.90;;;;;;5015509;28;20196;-49
2021/04/20 07:37:34;;;;;;;6.20;2.90;;;9.80;99.90;;;;;;5023791;28;20196;-49
2021/04/20 07:40:11;;;;;;;6.87;3.10;;;9.90;99.90;;;;;;5008645;28;20984;-51
2021/04/20 07:42:55;;;;;;;5.33;2.90;;;10.00;99.90;;;;;;5017840;28;20196;-50
2021/04/20 07:45:29;;;;;;;5.13;2.83;;;10.20;99.90;;;;;;5021940;28;20207;-52
2021/04/20 07:48:05;;;;;;;5.33;2.63;;;10.30;99.90;;;;;;5025207;28;20195;-50
2021/04/20 07:50:38;;;;;;;4.10;2.70;;;10.40;99.90;;;;;;5020342;28;20227;-52
2021/04/20 07:53:12;;;;;;;3.83;2.53;;;10.60;99.90;;;;;;5023882;28;20226;-50
2021/04/20 07:55:46;;;;;;;8.53;3.00;;;10.70;99.90;;;;;;5006869;28;20246;-48
2021/04/20 07:58:16;;;;;;;5.73;2.63;;;10.90;99.90;;;;;;5019001;28;20206;-49
2021/04/20 08:00:48;;;;;;;7.67;2.77;;;11.00;99.90;;;;;;5019498;28;20903;-50
2021/04/20 08:03:20;;;;;;;6.97;2.90;;;11.20;99.90;;;;;;5014458;28;20607;-49
2021/04/20 08:05:51;;;;;;;3.43;2.57;;;11.30;99.90;;;;;;5018183;28;20330;-52
2021/04/20 08:08:26;;;;;;;5.43;2.77;;;11.40;99.90;;;;;;5026649;28;20196;-47
2021/04/20 08:10:55;;;;;;;6.53;3.22;;;11.50;99.90;;;;;;5015862;28;20506;-47
2021/04/20 08:13:31;;;;;;;5.20;2.93;;;11.70;99.90;;;;;;5021768;28;20208;-53
2021/04/20 08:16:05;;;;;;;3.90;2.90;;;11.80;99.90;;;;;;5021319;28;20483;-49
2021/04/20 08:18:36;;;;;;;3.70;2.60;;;11.90;99.90;;;;;;5012179;28;20719;-55
2021/04/20 08:21:05;;;;;;;5.70;2.13;;;12.00;99.90;;;;;;5016934;28;20680;-51
2021/04/20 08:23:36;;;;;;;3.77;3.03;;;12.10;99.90;;;;;;5018127;28;20246;-53
2021/04/20 08:26:09;;;;;;;5.67;2.23;;;12.20;99.90;;;;;;5014475;28;20200;-47
2021/04/20 08:28:41;;;;;;;6.07;2.37;;;12.30;98.80;;;;;;5010044;28;20231;-56
2021/04/20 08:31:13;;;;;;;2.33;2.07;;;12.40;98.50;;;;;;5015894;28;20622;-50
2021/04/20 08:33:43;;;;;;;3.50;2.43;;;12.50;98.00;;;;;;5005281;28;20208;-54
2021/04/20 08:36:18;;;;;;;8.00;2.50;;;12.60;97.60;;;;;;5023325;28;20741;-54
2021/04/20 08:38:57;;;;;;;4.90;2.77;;;12.60;96.70;;;;;;5018537;28;20199;-55
2021/04/20 08:41:33;;;;;;;22.83;13.90;;;12.70;96.80;;;;;;5006832;28;20220;-54
2021/04/20 08:44:16;;;;;;;5.07;2.37;;;12.90;96.50;;;;;;5021931;28;20279;-56
2021/04/20 08:46:55;;;;;;;6.60;3.30;;;13.10;96.30;;;;;;5020028;28;20265;-51
2021/04/20 08:49:38;;;;;;;19.77;3.30;;;13.20;95.00;;;;;;5018118;28;20522;-48
2021/04/20 08:52:08;;;;;;;3.53;1.93;;;13.20;93.70;;;;;;5015392;28;20176;-51
2021/04/20 08:54:52;;;;;;;6.67;2.57;;;13.20;94.10;;;;;;5023297;28;20269;-51
2021/04/20 08:57:31;;;;;;;4.00;2.30;;;13.30;93.70;;;;;;5020929;28;20203;-52
2021/04/20 09:00:13;;;;;;;3.13;2.20;;;13.50;92.70;;;;;;5017504;28;20353;-55
2021/04/20 09:02:51;;;;;;;3.63;2.37;;;13.50;92.00;;;;;;5024780;28;20283;-51
2021/04/20 09:05:22;;;;;;;4.43;2.00;;;13.50;90.90;;;;;;5017906;28;20204;-48
2021/04/20 09:07:57;;;;;;;3.93;2.20;;;13.50;91.10;;;;;;5022855;28;20543;-55
2021/04/20 09:10:31;;;;;;;2.53;2.13;;;13.50;90.40;;;;;;5018954;28;20270;-49
2021/04/20 09:13:04;;;;;;;4.50;2.60;;;13.60;90.40;;;;;;5008322;28;20203;-58
2021/04/20 09:15:33;;;;;;;2.70;2.43;;;13.60;87.40;;;;;;5024613;28;20263;-52
2021/04/20 09:18:08;;;;;;;6.03;2.47;;;13.60;87.20;;;;;;5021335;28;20192;-56
2021/04/20 09:20:38;;;;;;;2.40;2.20;;;13.60;85.40;;;;;;5017695;28;20226;-51
2021/04/20 09:23:13;;;;;;;4.23;2.97;;;13.70;87.00;;;;;;5014980;28;20323;-50
2021/04/20 09:25:50;;;;;;;4.37;2.30;;;13.70;86.50;;;;;;5016223;28;20221;-55
2021/04/20 09:28:23;;;;;;;4.13;2.00;;;13.80;83.70;;;;;;5004812;28;20215;-54
2021/04/20 09:30:53;;;;;;;4.33;2.63;;;13.90;82.60;;;;;;5014770;28;20728;-55
2021/04/20 09:33:21;;;;;;;3.17;2.13;;;13.90;82.50;;;;;;5019885;28;20199;-49
2021/04/20 09:35:50;;;;;;;3.33;2.60;;;13.90;79.70;;;;;;5018654;28;20196;-56
2021/04/20 09:38:18;;;;;;;2.80;2.07;;;13.90;79.20;;;;;;5018217;28;20290;-53
2021/04/20 09:40:46;;;;;;;3.07;1.73;;;14.00;78.40;;;;;;5012399;28;20250;-53
2021/04/20 09:43:25;;;;;;;3.70;1.90;;;14.00;76.10;;;;;;5002245;28;20215;-49
2021/04/20 09:45:58;;;;;;;2.90;1.73;;;14.20;72.60;;;;;;5015366;28;20257;-52
2021/04/20 09:48:31;;;;;;;2.90;2.20;;;14.20;72.10;;;;;;5017356;28;20670;-56
2021/04/20 09:51:03;;;;;;;9.07;2.30;;;14.20;69.30;;;;;;5012213;28;20215;-49
2021/04/20 09:53:41;;;;;;;4.53;1.80;;;14.30;69.90;;;;;;5017498;28;20297;-57
2021/04/20 09:56:20;;;;;;;3.13;2.00;;;14.40;69.30;;;;;;5023821;28;20275;-49
2021/04/20 09:58:48;;;;;;;3.60;2.20;;;14.60;68.30;;;;;;5005498;28;20215;-51
2021/04/20 10:01:29;;;;;;;4.87;2.10;;;14.70;66.80;;;;;;5019310;28;20232;-51
2021/04/20 10:03:59;;;;;;;4.47;2.00;;;14.60;65.80;;;;;;5016642;28;20996;-48
2021/04/20 10:06:52;;;;;;;3.07;1.90;;;14.70;65.60;;;;;;5022029;28;20203;-57
2021/04/20 10:09:24;;;;;;;2.93;1.90;;;14.80;66.00;;;;;;5018119;28;20755;-54
2021/04/20 10:12:05;;;;;;;3.00;1.83;;;14.70;63.60;;;;;;5016220;28;20232;-49
2021/04/20 10:14:42;;;;;;;3.07;1.90;;;14.80;66.40;;;;;;5007421;28;20222;-57
2021/04/20 10:17:15;;;;;;;3.20;1.97;;;14.90;65.60;;;;;;5019011;28;20203;-48
2021/04/20 10:19:47;;;;;;;5.57;1.87;;;15.00;65.20;;;;;;5017196;28;20188;-48
2021/04/20 10:22:27;;;;;;;3.93;2.10;;;15.00;63.80;;;;;;5023714;28;20228;-53
2021/04/20 10:25:03;;;;;;;2.27;1.57;;;15.00;58.10;;;;;;5021024;28;20811;-53
2021/04/20 10:27:33;;;;;;;4.90;1.90;;;14.80;57.30;;;;;;5018544;28;20231;-57
2021/04/20 10:30:06;;;;;;;4.13;1.80;;;14.90;58.10;;;;;;5014095;28;20212;-53
2021/04/20 10:32:34;;;;;;;2.90;2.00;;;14.90;57.10;;;;;;5022937;28;20265;-56
2021/04/20 10:35:03;;;;;;;4.77;2.30;;;15.00;57.60;;;;;;5027386;28;20297;-48
2021/04/20 10:37:34;;;;;;;2.10;1.90;;;15.10;58.00;;;;;;5024806;28;20199;-56
2021/04/20 10:40:02;;;;;;;4.37;2.13;;;15.20;55.80;;;;;;5017736;28;20302;-49
2021/04/20 10:42:31;;;;;;;2.83;1.77;;;15.20;52.60;;;;;;5030146;28;20206;-55
2021/04/20 10:44:58;;;;;;;2.27;1.93;;;15.20;52.20;;;;;;5010730;28;22391;-53
2021/04/20 10:47:26;;;;;;;4.10;1.90;;;15.10;53.40;;;;;;5012486;28;20212;-50
2021/04/20 10:49:56;;;;;;;4.17;2.00;;;15.20;53.70;;;;;;5024983;28;20200;-48
2021/04/20 10:52:25;;;;;;;4.40;1.80;;;15.30;53.00;;;;;;5018593;28;20302;-49
2021/04/20 10:54:53;;;;;;;3.33;1.80;;;15.30;51.60;;;;;;5014255;28;20210;-48
2021/04/20 10:57:20;;;;;;;4.80;2.07;;;15.20;51.20;;;;;;5025325;28;20534;-47
2021/04/20 10:59:53;;;;;;;3.90;1.63;;;15.20;51.10;;;;;;5006352;28;20201;-55
2021/04/20 11:02:21;;;;;;;6.87;2.00;;;15.20;51.20;;;;;;5025594;28;20268;-49
2021/04/20 11:04:52;;;;;;;5.80;1.97;;;15.50;53.00;;;;;;5020958;28;20192;-53
2021/04/20 11:07:25;;;;;;;4.93;2.10;;;15.50;51.00;;;;;;5020143;28;20200;-49
2021/04/20 11:09:57;;;;;;;2.83;1.90;;;15.40;50.70;;;;;;5016635;28;20196;-51
2021/04/20 11:12:26;;;;;;;2.23;1.60;;;15.40;49.70;;;;;;5026220;28;20603;-51
2021/04/20 11:14:54;;;;;;;4.27;1.90;;;15.50;48.60;;;;;;5005774;28;23796;-53
2021/04/20 11:17:28;;;;;;;2.73;2.10;;;15.50;48.20;;;;;;5020918;28;20204;-54
2021/04/20 11:20:08;;;;;;;2.67;1.80;;;15.50;48.30;;;;;;5021177;28;20232;-49
2021/04/20 11:22:46;;;;;;;3.10;1.87;;;15.60;47.80;;;;;;5020005;28;20211;-52
2021/04/20 11:25:22;;;;;;;2.57;1.53;;;15.40;49.00;;;;;;5019687;28;20249;-55
2021/04/20 11:27:54;;;;;;;2.77;1.67;;;15.40;49.10;;;;;;5020828;28;20360;-50
2021/04/20 11:30:28;;;;;;;2.17;1.67;;;15.30;48.50;;;;;;5016164;28;20855;-54
2021/04/20 11:32:56;;;;;;;2.33;1.57;;;15.30;48.40;;;;;;5017520;28;20198;-55
2021/04/20 11:35:24;;;;;;;2.07;1.60;;;15.30;47.60;;;;;;5019145;28;20211;-52
2021/04/20 11:37:58;;;;;;;2.23;1.67;;;15.30;48.40;;;;;;5011339;28;20401;-53
2021/04/20 11:40:30;;;;;;;3.70;1.50;;;15.40;49.70;;;;;;5019666;28;20708;-55
2021/04/20 11:42:59;;;;;;;3.50;1.43;;;15.70;49.10;;;;;;5017971;28;20192;-53
2021/04/20 11:45:28;;;;;;;4.03;1.60;;;15.80;47.50;;;;;;5021503;28;20268;-51
2021/04/20 11:48:03;;;;;;;5.87;1.80;;;15.60;47.90;;;;;;5024293;28;20264;-52
2021/04/20 11:50:33;;;;;;;4.37;1.60;;;15.80;47.80;;;;;;5021896;28;20223;-51
2021/04/20 11:53:01;;;;;;;2.00;1.30;;;15.80;47.20;;;;;;5022162;28;20200;-51
2021/04/20 11:55:30;;;;;;;3.10;1.50;;;15.80;46.90;;;;;;5020927;28;20704;-52
2021/04/20 11:58:02;;;;;;;3.07;1.50;;;15.70;46.90;;;;;;5016991;28;20842;-54
2021/04/20 12:00:31;;;;;;;2.83;1.50;;;15.80;46.60;;;;;;5020523;28;20230;-53
2021/04/20 12:02:58;;;;;;;3.03;1.53;;;15.70;46.00;;;;;;5020419;28;20596;-54
2021/04/20 12:05:25;;;;;;;3.60;1.53;;;15.70;46.70;;;;;;5017025;28;20208;-51
2021/04/20 12:07:52;;;;;;;5.03;1.60;;;15.80;45.70;;;;;;5018281;28;20295;-53
2021/04/20 12:10:19;;;;;;;5.47;1.60;;;15.90;46.30;;;;;;5016740;28;20246;-50
2021/04/20 12:12:51;;;;;;;4.97;1.37;;;16.00;45.40;;;;;;5019339;28;20204;-51
2021/04/20 12:15:19;;;;;;;3.00;1.50;;;15.90;46.70;;;;;;5018971;28;20207;-51
2021/04/20 12:17:47;;;;;;;108.27;16.43;;;16.00;46.90;;;;;;5010446;28;20212;-54
2021/04/20 12:20:22;;;;;;;5.03;1.93;;;16.10;47.00;;;;;;5018031;28;20334;-53
2021/04/20 12:22:52;;;;;;;4.03;2.03;;;16.10;47.90;;;;;;5018319;28;20195;-52
2021/04/20 12:25:20;;;;;;;3.00;1.83;;;16.30;49.00;;;;;;5016363;28;20235;-50
2021/04/20 12:27:50;;;;;;;1.73;1.50;;;16.50;48.20;;;;;;5014212;28;20568;-52
2021/04/20 12:30:19;;;;;;;3.30;1.30;;;16.50;47.90;;;;;;5015085;28;20266;-55
2021/04/20 12:32:46;;;;;;;2.07;1.60;;;16.50;46.80;;;;;;5005652;28;20200;-53
2021/04/20 12:35:13;;;;;;;4.50;1.73;;;16.50;47.20;;;;;;5011186;28;20200;-54
2021/04/20 12:37:40;;;;;;;4.13;2.23;;;16.70;48.00;;;;;;5018679;28;20695;-54
2021/04/20 12:40:08;;;;;;;3.97;1.90;;;16.70;46.70;;;;;;5014666;28;20235;-54
2021/04/20 12:42:38;;;;;;;3.33;1.70;;;16.70;45.70;;;;;;5012399;28;20452;-53
2021/04/20 12:45:09;;;;;;;2.67;1.93;;;16.60;47.00;;;;;;5019078;28;20192;-54
2021/04/20 12:47:39;;;;;;;1.47;1.37;;;16.60;45.40;;;;;;5012280;28;20207;-51
2021/04/20 12:50:10;;;;;;;4.40;1.67;;;16.50;45.60;;;;;;5018001;28;20236;-54
2021/04/20 12:52:41;;;;;;;2.83;1.30;;;16.70;45.00;;;;;;5020120;28;20200;-50
2021/04/20 12:55:12;;;;;;;4.07;1.80;;;16.60;44.40;;;;;;5021818;28;20204;-54
2021/04/20 12:57:42;;;;;;;3.03;1.87;;;16.70;44.20;;;;;;5012941;28;20258;-52
2021/04/20 13:00:15;;;;;;;2.93;1.43;;;16.70;43.80;;;;;;5020156;28;20220;-52
2021/04/20 13:02:45;;;;;;;2.03;1.40;;;16.70;43.50;;;;;;5016209;28;20300;-53
2021/04/20 13:05:14;;;;;;;2.67;1.60;;;16.80;43.10;;;;;;5011356;28;20197;-56